Carnforth, Iowa
Current Conditions -  °F | °C
As of 6:15 AM on Friday 24 Oct 2014 (Local Time) from KGGI Reporting Station
Moderate Fog Moderate Fog  
Wind Chill: 50°   Ceiling: 100
Heat Index: 50°   Visibility: 0.25mi
Dew Point: 50°   Wind: 6mph
Humidity: 97%   Direction: 160°SSE
Pressure: 30.01"   Gusts: NA
Location:  41.7326°N, 92.2462°W
Report Text: KGGI 241115Z AUTO 16005KT 1/4SM FG OVC001 10/10 A3001 RMK AO2 T01020098
Loading
Personal Weather Stations






























Interactive Weather Map
Tropical Storm Tracking
New forecast layout! Learn more

10-Day Weather Forecast

Advertisements
Track Severe Weather on mobile